createdAt,value
2018-12-13T00:00:55.132Z,97611.72
2018-12-13T00:03:27.865Z,97611.19
2018-12-13T00:06:00.608Z,97613.78
2018-12-13T00:08:31.341Z,97621.16
2018-12-13T00:11:01.991Z,97618.39
2018-12-13T00:13:32.697Z,97618.80
2018-12-13T00:16:03.440Z,97621.95
2018-12-13T00:18:34.121Z,97618.56
2018-12-13T00:21:04.901Z,97627.95
2018-12-13T00:23:35.602Z,97636.86
2018-12-13T00:26:06.402Z,97621.90
2018-12-13T00:28:37.082Z,97630.02
2018-12-13T00:31:07.811Z,97635.03
2018-12-13T00:33:38.568Z,97634.87
2018-12-13T00:36:09.363Z,97631.46
2018-12-13T00:38:39.983Z,97630.02
2018-12-13T00:41:12.434Z,97629.04
2018-12-13T00:43:43.159Z,97630.02
2018-12-13T00:46:13.813Z,97632.92
2018-12-13T00:48:44.565Z,97616.91
2018-12-13T00:51:15.132Z,97617.88
2018-12-13T00:53:45.884Z,97618.36
2018-12-13T00:56:16.563Z,97618.23
2018-12-13T00:58:47.244Z,97608.73
2018-12-13T01:01:17.885Z,97611.75
2018-12-13T01:03:48.439Z,97614.23
2018-12-13T01:06:19.101Z,97609.69
2018-12-13T01:08:49.865Z,97613.94
2018-12-13T01:11:20.626Z,97608.11
2018-12-13T01:13:51.360Z,97607.00
2018-12-13T01:16:25.217Z,97607.48
2018-12-13T01:18:56.063Z,97608.19
2018-12-13T01:21:27.953Z,97606.38
2018-12-13T01:23:58.595Z,97609.70
2018-12-13T01:26:29.339Z,97607.17
2018-12-13T01:29:01.338Z,97605.00
2018-12-13T01:31:32.060Z,97606.85
2018-12-13T01:34:02.793Z,97605.02
2018-12-13T01:36:33.521Z,97603.33
2018-12-13T01:39:04.944Z,97602.95
2018-12-13T01:41:37.140Z,97599.63
2018-12-13T01:44:07.843Z,97597.41
2018-12-13T01:46:39.569Z,97591.89
2018-12-13T01:49:10.207Z,97599.94
2018-12-13T01:51:40.880Z,97587.70
2018-12-13T01:54:11.602Z,97596.27
2018-12-13T01:56:42.319Z,97595.00
2018-12-13T01:59:13.053Z,97594.23
2018-12-13T02:01:43.854Z,97592.16
2018-12-13T02:04:15.000Z,97595.12
2018-12-13T02:06:45.730Z,97593.38
2018-12-13T02:09:16.426Z,97594.23
2018-12-13T02:11:47.094Z,97593.86
2018-12-13T02:14:17.803Z,97588.83
2018-12-13T02:16:49.061Z,97591.46
2018-12-13T02:19:19.683Z,97594.27
2018-12-13T02:21:51.365Z,97590.20
2018-12-13T02:24:22.113Z,97586.81
2018-12-13T02:26:52.932Z,97584.28
2018-12-13T02:29:23.688Z,97574.95
2018-12-13T02:31:54.342Z,97583.69
2018-12-13T02:34:25.058Z,97578.59
2018-12-13T02:36:55.829Z,97583.69
2018-12-13T02:39:26.533Z,97589.98
2018-12-13T02:41:57.573Z,97584.97
2018-12-13T02:44:28.311Z,97583.47
2018-12-13T02:46:58.944Z,97582.90
2018-12-13T02:49:29.607Z,97585.37
2018-12-13T02:52:00.672Z,97584.42
2018-12-13T02:54:31.400Z,97583.58
2018-12-13T02:57:02.009Z,97586.55
2018-12-13T02:59:32.807Z,97584.47
2018-12-13T03:02:03.834Z,97587.76
2018-12-13T03:04:34.519Z,97591.64
2018-12-13T03:07:05.312Z,97590.84
2018-12-13T03:09:35.894Z,97586.76
2018-12-13T03:12:06.608Z,97585.85
2018-12-13T03:14:38.252Z,97590.46
2018-12-13T03:17:09.255Z,97591.63
2018-12-13T03:19:39.926Z,97590.36
2018-12-13T03:22:10.744Z,97593.43
2018-12-13T03:24:41.447Z,97595.38
2018-12-13T03:27:12.157Z,97593.59
2018-12-13T03:29:42.815Z,97595.38
2018-12-13T03:32:13.527Z,97586.11
2018-12-13T03:34:44.191Z,97585.58
2018-12-13T03:37:20.861Z,97582.31
2018-12-13T03:39:52.523Z,97589.45
2018-12-13T03:42:28.434Z,97586.48
2018-12-13T03:45:01.117Z,97580.36
2018-12-13T03:47:34.535Z,97584.11
2018-12-13T03:50:05.815Z,97585.37
2018-12-13T03:52:36.557Z,97583.09
2018-12-13T03:55:07.218Z,97587.88
2018-12-13T03:57:37.941Z,97587.13
2018-12-13T04:00:08.693Z,97587.71
2018-12-13T04:02:41.026Z,97584.80
2018-12-13T04:05:11.648Z,97591.46
2018-12-13T04:07:42.312Z,97597.03
2018-12-13T04:10:14.934Z,97588.66
2018-12-13T04:12:45.566Z,97598.26
2018-12-13T04:15:16.208Z,97601.90
2018-12-13T04:17:46.814Z,97602.28
2018-12-13T04:20:19.608Z,97599.36
2018-12-13T04:22:52.339Z,97607.05
2018-12-13T04:25:23.108Z,97605.87
2018-12-13T04:27:54.673Z,97604.98
2018-12-13T04:30:25.357Z,97602.05
2018-12-13T04:32:56.150Z,97603.48
2018-12-13T04:35:26.773Z,97614.92
2018-12-13T04:37:57.432Z,97602.91
2018-12-13T04:40:30.691Z,97607.57
2018-12-13T04:43:01.473Z,97602.16
2018-12-13T04:45:32.137Z,97599.16
2018-12-13T04:48:03.800Z,97599.89
2018-12-13T04:50:34.551Z,97601.91
2018-12-13T04:53:05.176Z,97606.28
2018-12-13T04:55:36.706Z,97617.05
2018-12-13T04:58:07.480Z,97612.12
2018-12-13T05:00:38.172Z,97619.59
2018-12-13T05:03:08.819Z,97619.20
2018-12-13T05:05:40.263Z,97626.46
2018-12-13T05:08:10.920Z,97620.49
2018-12-13T05:10:51.918Z,97621.28
2018-12-13T05:13:23.171Z,97629.02
2018-12-13T05:15:53.959Z,97616.88
2018-12-13T05:18:24.608Z,97621.87
2018-12-13T05:20:55.324Z,97622.28
2018-12-13T05:23:26.704Z,97624.08
2018-12-13T05:25:57.355Z,97626.52
2018-12-13T05:28:28.806Z,97622.28
2018-12-13T05:30:59.643Z,97624.07
2018-12-13T05:33:30.376Z,97630.76
2018-12-13T05:36:01.054Z,97634.19
2018-12-13T05:38:31.729Z,97634.98
2018-12-13T05:41:02.416Z,97635.37
2018-12-13T05:43:33.835Z,97643.79
2018-12-13T05:46:04.508Z,97642.52
2018-12-13T05:48:35.797Z,97645.89
2018-12-13T05:51:06.586Z,97642.89
2018-12-13T05:53:37.216Z,97645.20
2018-12-13T05:56:08.063Z,97650.88
2018-12-13T05:58:38.748Z,97651.20
2018-12-13T06:01:09.415Z,97650.25
2018-12-13T06:03:43.760Z,97654.91
2018-12-13T06:06:14.508Z,97647.81
2018-12-13T06:08:45.239Z,97647.23
2018-12-13T06:11:16.444Z,97655.81
2018-12-13T06:13:47.096Z,97650.41
2018-12-13T06:16:17.789Z,97654.11
2018-12-13T06:18:48.414Z,97660.25
2018-12-13T06:21:19.172Z,97662.59
2018-12-13T06:23:51.169Z,97658.20
2018-12-13T06:26:21.887Z,97664.22
2018-12-13T06:28:53.388Z,97665.81
2018-12-13T06:31:24.116Z,97659.61
2018-12-13T06:33:54.859Z,97656.42
2018-12-13T06:36:25.556Z,97660.84
2018-12-13T06:38:56.231Z,97664.42
2018-12-13T06:41:26.931Z,97666.70
2018-12-13T06:43:58.682Z,97670.22
2018-12-13T06:46:29.310Z,97674.10
2018-12-13T06:49:00.013Z,97671.38
2018-12-13T06:51:30.715Z,97676.22
2018-12-13T06:54:01.345Z,97672.40
2018-12-13T06:56:32.054Z,97674.44
2018-12-13T06:59:02.761Z,97624.20
2018-12-13T07:01:33.439Z,97674.55
2018-12-13T07:04:05.750Z,97675.77
2018-12-13T07:06:36.501Z,97673.98
2018-12-13T07:09:08.085Z,97675.27
2018-12-13T07:11:40.395Z,97671.98
2018-12-13T07:14:11.087Z,97674.83
2018-12-13T07:16:42.235Z,97673.55
2018-12-13T07:19:13.097Z,97671.59
2018-12-13T07:21:43.710Z,97674.61
2018-12-13T07:24:14.499Z,97666.75
2018-12-13T07:26:45.856Z,97673.05
2018-12-13T07:29:16.566Z,97673.91
2018-12-13T07:31:47.366Z,97678.22
2018-12-13T07:34:18.015Z,97677.37
2018-12-13T07:36:48.668Z,97678.65
2018-12-13T07:39:19.285Z,97673.06
2018-12-13T07:41:49.918Z,97676.75
2018-12-13T07:44:20.940Z,97684.70
2018-12-13T07:46:51.667Z,97681.94
2018-12-13T07:49:22.438Z,97683.55
2018-12-13T07:51:53.171Z,97685.02
2018-12-13T07:54:23.860Z,97692.58
2018-12-13T07:56:54.555Z,97690.67
2018-12-13T07:59:25.403Z,97691.69
2018-12-13T08:01:56.175Z,97690.70
2018-12-13T08:04:27.029Z,97698.66
2018-12-13T08:06:57.673Z,97694.54
2018-12-13T08:09:28.374Z,97693.84
2018-12-13T08:11:59.091Z,97688.56
2018-12-13T08:14:29.857Z,97689.86
2018-12-13T08:17:00.446Z,97689.21
2018-12-13T08:19:33.202Z,97697.63
2018-12-13T08:22:03.969Z,97694.05
2018-12-13T08:24:34.891Z,97697.34
2018-12-13T08:27:07.493Z,97691.97
2018-12-13T08:29:38.146Z,97695.01
2018-12-13T08:32:08.764Z,97700.00
2018-12-13T08:34:39.408Z,97700.17
2018-12-13T08:37:11.180Z,97690.38
2018-12-13T08:39:41.835Z,97693.09
2018-12-13T08:42:12.504Z,97693.19
2018-12-13T08:44:43.334Z,97695.17
2018-12-13T08:47:14.010Z,97698.42
2018-12-13T08:49:44.752Z,97694.77
2018-12-13T08:52:15.366Z,97696.44
2018-12-13T08:54:46.082Z,97689.67
2018-12-13T08:57:16.754Z,97701.08
2018-12-13T08:59:47.431Z,97696.88
2018-12-13T09:02:18.136Z,97689.92
2018-12-13T09:04:49.286Z,97684.22
2018-12-13T09:07:20.171Z,97685.04
2018-12-13T09:09:50.731Z,97681.98
2018-12-13T09:12:22.439Z,97684.07
2018-12-13T09:14:53.127Z,97678.73
2018-12-13T09:17:23.748Z,97681.94
2018-12-13T09:19:54.322Z,97678.20
2018-12-13T09:22:25.080Z,97686.13
2018-12-13T09:24:56.747Z,97673.68
2018-12-13T09:27:27.424Z,97678.88
2018-12-13T09:29:59.916Z,97677.37
2018-12-13T09:32:30.601Z,97665.62
2018-12-13T09:35:01.246Z,97679.88
2018-12-13T09:37:31.919Z,97675.49
2018-12-13T09:40:02.508Z,97673.77
2018-12-13T09:42:33.223Z,97674.03
2018-12-13T09:45:04.238Z,97667.92
2018-12-13T09:47:35.428Z,97676.17
2018-12-13T09:50:06.785Z,97670.38
2018-12-13T09:52:37.468Z,97674.37
2018-12-13T09:55:08.087Z,97671.66
2018-12-13T09:57:38.759Z,97648.01
2018-12-13T10:00:11.003Z,97669.40
2018-12-13T10:02:41.676Z,97657.00
2018-12-13T10:05:12.603Z,97660.30
2018-12-13T10:07:43.378Z,97652.06
2018-12-13T10:10:14.119Z,97642.66
2018-12-13T10:12:45.282Z,97645.92
2018-12-13T10:15:16.004Z,97635.75
2018-12-13T10:17:46.741Z,97640.35
2018-12-13T10:20:17.496Z,97650.81
2018-12-13T10:22:48.134Z,97644.20
2018-12-13T10:25:18.979Z,97647.08
2018-12-13T10:27:49.748Z,97639.58
2018-12-13T10:30:20.509Z,97639.25
2018-12-13T10:32:55.045Z,97639.13
2018-12-13T10:35:25.723Z,97633.55
2018-12-13T10:37:56.376Z,97633.81
2018-12-13T10:40:26.963Z,97637.39
2018-12-13T10:42:57.528Z,97633.44
2018-12-13T10:45:28.209Z,97630.98
2018-12-13T10:47:58.839Z,97622.95
2018-12-13T10:50:29.353Z,97625.47
2018-12-13T10:52:59.984Z,97619.03
2018-12-13T10:58:16.312Z,97620.53
2018-12-13T11:00:51.614Z,97627.43
2018-12-13T11:03:28.975Z,97614.81
2018-12-13T11:06:00.500Z,97620.02
2018-12-13T11:08:31.123Z,97612.11
2018-12-13T11:11:01.847Z,97615.44
2018-12-13T11:13:32.538Z,97616.26
2018-12-13T11:16:03.225Z,97616.27
2018-12-13T11:18:33.912Z,97614.74
2018-12-13T11:21:05.607Z,97616.86
2018-12-13T11:23:36.252Z,97611.38
2018-12-13T11:26:06.970Z,97609.05
2018-12-13T11:29:47.959Z,97607.94
2018-12-13T11:32:24.246Z,97609.12
2018-12-13T11:34:54.915Z,97610.23
2018-12-13T11:37:26.353Z,97610.63
2018-12-13T11:39:57.920Z,97607.37
2018-12-13T11:42:28.704Z,97609.16
2018-12-13T11:45:03.178Z,97610.92
2018-12-13T11:47:34.524Z,97614.75
2018-12-13T11:50:06.587Z,97601.38
2018-12-13T11:52:37.368Z,97603.64
2018-12-13T11:55:17.363Z,97610.80
2018-12-13T11:57:48.141Z,97607.00
2018-12-13T12:00:20.167Z,97606.17
2018-12-13T12:02:50.804Z,97609.83
2018-12-13T12:05:21.801Z,97607.52
2018-12-13T12:07:54.424Z,97612.39
2018-12-13T12:10:26.295Z,97619.06
2018-12-13T12:12:57.208Z,97605.15
2018-12-13T12:15:27.888Z,97611.17
2018-12-13T12:17:59.116Z,97614.30
2018-12-13T12:20:30.397Z,97617.42
2018-12-13T12:23:03.547Z,97610.77
2018-12-13T12:25:39.745Z,97619.12
2018-12-13T12:28:11.377Z,97612.14
2018-12-13T12:30:42.030Z,97618.59
2018-12-13T12:33:18.747Z,97622.06
2018-12-13T12:35:49.454Z,97623.16
2018-12-13T12:38:21.042Z,97622.23
2018-12-13T12:40:51.763Z,97613.20
2018-12-13T12:43:22.458Z,97619.87
2018-12-13T12:45:53.158Z,97628.58
2018-12-13T12:48:25.067Z,97620.28
2018-12-13T12:50:55.667Z,97623.14
2018-12-13T12:53:26.345Z,97627.94
2018-12-13T12:55:56.961Z,97619.75
2018-12-13T12:58:28.124Z,97625.27
2018-12-13T13:00:58.832Z,97624.62
2018-12-13T13:03:29.454Z,97623.41
2018-12-13T13:06:00.187Z,97625.13
2018-12-13T13:08:30.870Z,97623.96
2018-12-13T13:11:01.513Z,97624.55
2018-12-13T13:13:32.152Z,97622.17
2018-12-13T13:16:02.879Z,97621.91
2018-12-13T13:18:39.023Z,97629.08
2018-12-13T13:21:06.726Z,97632.04
2018-12-13T13:23:39.205Z,97625.34
2018-12-13T13:26:09.960Z,97627.39
2018-12-13T13:28:40.622Z,97630.98
2018-12-13T13:31:12.884Z,97644.67
2018-12-13T13:33:43.595Z,97648.77
2018-12-13T13:36:14.275Z,97642.38
2018-12-13T13:38:45.277Z,97642.30
2018-12-13T13:41:15.926Z,97650.16
2018-12-13T13:43:46.642Z,97650.80
2018-12-13T13:46:17.308Z,97654.64
2018-12-13T13:48:48.005Z,97659.67
2018-12-13T13:51:18.701Z,97660.22
2018-12-13T13:53:49.342Z,97657.56
2018-12-13T13:56:20.003Z,97655.74
2018-12-13T13:58:51.271Z,97650.47
2018-12-13T14:04:13.859Z,97649.94
2018-12-13T14:06:46.374Z,97653.98
2018-12-13T14:09:17.170Z,97656.77
2018-12-13T14:11:47.741Z,97654.45
2018-12-13T14:14:18.382Z,97652.46
2018-12-13T14:16:48.966Z,97658.34
2018-12-13T14:19:20.654Z,97653.40
2018-12-13T14:21:51.423Z,97662.47
2018-12-13T14:24:22.074Z,97658.09
2018-12-13T14:26:52.752Z,97666.35
2018-12-13T14:29:23.430Z,97669.89
2018-12-13T14:31:54.096Z,97667.56
2018-12-13T14:34:25.766Z,97665.64
2018-12-13T14:36:56.447Z,97671.34
2018-12-13T14:39:27.124Z,97677.02
2018-12-13T14:41:59.977Z,97679.16
2018-12-13T14:44:34.143Z,97681.00
2018-12-13T14:47:04.735Z,97676.77
2018-12-13T14:49:35.418Z,97681.16
2018-12-13T14:52:06.023Z,97679.88
2018-12-13T14:54:36.593Z,97677.20
2018-12-13T14:57:07.627Z,97682.52
2018-12-13T14:59:38.271Z,97686.94
2018-12-13T15:02:09.263Z,97691.12
2018-12-13T15:04:39.970Z,97695.66
2018-12-13T15:07:10.633Z,97690.56
2018-12-13T15:09:41.274Z,97693.41
2018-12-13T15:12:11.917Z,97702.13
2018-12-13T15:14:42.630Z,97701.41
2018-12-13T15:17:13.283Z,97699.49
2018-12-13T15:19:43.903Z,97692.13
2018-12-13T15:22:14.911Z,97691.20
2018-12-13T15:24:45.684Z,97684.19
2018-12-13T15:27:16.300Z,97686.59
2018-12-13T15:29:46.949Z,97683.41
2018-12-13T15:32:17.635Z,97685.66
2018-12-13T15:34:48.564Z,97691.61
2018-12-13T15:37:19.439Z,97684.04
2018-12-13T15:39:50.055Z,97685.26
2018-12-13T15:42:21.841Z,97686.59
2018-12-13T15:44:52.499Z,97692.67
2018-12-13T15:47:23.865Z,97690.05
2018-12-13T15:49:54.684Z,97691.27
2018-12-13T15:52:25.366Z,97693.95
2018-12-13T15:54:56.035Z,97700.68
2018-12-13T15:57:26.734Z,97698.86
2018-12-13T15:59:57.319Z,97689.73
2018-12-13T16:02:31.753Z,97691.06
2018-12-13T16:05:02.440Z,97690.83
2018-12-13T16:07:33.236Z,97696.22
2018-12-13T16:10:04.273Z,97689.00
2018-12-13T16:12:35.196Z,97689.99
2018-12-13T16:15:08.682Z,97693.96
2018-12-13T16:17:39.446Z,97696.57
2018-12-13T16:20:10.296Z,97686.10
2018-12-13T16:22:41.075Z,97689.00
2018-12-13T16:25:11.797Z,97690.05
2018-12-13T16:27:42.564Z,97694.19
2018-12-13T16:30:14.389Z,97696.07
2018-12-13T16:32:45.388Z,97694.88
2018-12-13T16:35:16.005Z,97695.28
2018-12-13T16:37:46.625Z,97689.20
2018-12-13T16:40:17.371Z,97688.12
2018-12-13T16:42:48.125Z,97695.48
2018-12-13T16:45:18.928Z,97697.92
2018-12-13T16:47:49.997Z,97689.83
2018-12-13T16:50:23.148Z,97689.25
2018-12-13T16:52:54.901Z,97695.62
2018-12-13T16:55:25.525Z,97696.00
2018-12-13T16:57:56.186Z,97691.09
2018-12-13T17:00:27.008Z,97691.87
2018-12-13T17:02:57.717Z,97698.87
2018-12-13T17:05:28.331Z,97695.98
2018-12-13T17:07:59.230Z,97693.00
2018-12-13T17:10:30.872Z,97704.82
2018-12-13T17:13:01.499Z,97706.59
2018-12-13T17:15:32.088Z,97703.31
2018-12-13T17:18:02.831Z,97702.03
2018-12-13T17:20:34.271Z,97703.81
2018-12-13T17:23:05.162Z,97701.24
2018-12-13T17:25:35.808Z,97702.05
2018-12-13T17:28:06.559Z,97705.88
2018-12-13T17:30:37.116Z,97709.22
2018-12-13T17:33:07.781Z,97704.72
2018-12-13T17:35:38.417Z,97706.61
2018-12-13T17:38:09.246Z,97707.30
2018-12-13T17:40:39.879Z,97704.76
2018-12-13T17:43:10.715Z,97703.97
2018-12-13T17:45:41.459Z,97698.93
2018-12-13T17:48:12.139Z,97705.13
2018-12-13T17:50:42.778Z,97700.03
2018-12-13T17:53:13.518Z,97702.15
2018-12-13T17:55:44.156Z,97693.25
2018-12-13T17:58:14.826Z,97694.02
2018-12-13T18:00:45.501Z,97694.02
2018-12-13T18:03:16.309Z,97700.26
2018-12-13T18:05:46.990Z,97699.42
2018-12-13T18:08:18.153Z,97693.89
2018-12-13T18:10:48.853Z,97696.44
2018-12-13T18:13:19.532Z,97689.77
2018-12-13T18:15:50.285Z,97694.02
2018-12-13T18:18:21.218Z,97684.34
2018-12-13T18:20:53.749Z,97689.89
2018-12-13T18:23:24.574Z,97689.54
2018-12-13T18:25:55.202Z,97691.78
2018-12-13T18:28:26.253Z,97694.22
2018-12-13T18:30:56.902Z,97695.68
2018-12-13T18:33:27.545Z,97694.84
2018-12-13T18:35:58.858Z,97694.52
2018-12-13T18:38:29.792Z,97687.66
2018-12-13T18:41:00.473Z,97685.06
2018-12-13T18:43:31.192Z,97688.78
2018-12-13T18:46:02.263Z,97684.58
2018-12-13T18:48:32.906Z,97686.82
2018-12-13T18:51:03.875Z,97689.80
2018-12-13T18:53:34.586Z,97697.44
2018-12-13T18:56:06.611Z,97697.80
2018-12-13T18:58:37.352Z,97695.33
2018-12-13T19:01:08.703Z,97691.63
2018-12-13T19:03:40.035Z,97690.33
2018-12-13T19:06:10.946Z,97685.14
2018-12-13T19:08:41.582Z,97688.66
2018-12-13T19:11:13.133Z,97684.76
2018-12-13T19:13:43.925Z,97684.22
2018-12-13T19:16:14.706Z,97683.81
2018-12-13T19:18:46.716Z,97685.55
2018-12-13T19:21:17.941Z,97689.56
2018-12-13T19:23:50.123Z,97690.53
2018-12-13T19:26:21.693Z,97689.63
2018-12-13T19:28:53.538Z,97694.64
2018-12-13T19:31:30.081Z,97689.44
2018-12-13T19:34:00.817Z,97692.91
2018-12-13T19:36:32.057Z,97691.73
2018-12-13T19:39:06.031Z,97686.23
2018-12-13T19:41:38.226Z,97688.78
2018-12-13T19:44:10.089Z,97682.03
2018-12-13T19:46:40.743Z,97684.27
2018-12-13T19:49:11.428Z,97680.40
2018-12-13T19:51:42.206Z,97682.03
2018-12-13T19:54:13.015Z,97677.44
2018-12-13T19:56:43.692Z,97681.75
2018-12-13T19:59:14.462Z,97681.37
2018-12-13T20:01:45.721Z,97685.67
2018-12-13T20:04:16.430Z,97680.09
2018-12-13T20:06:48.977Z,97680.17
2018-12-13T20:09:19.602Z,97674.64
2018-12-13T20:11:51.955Z,97673.37
2018-12-13T20:14:23.554Z,97672.64
2018-12-13T20:16:54.340Z,97667.97
2018-12-13T20:19:24.900Z,97674.89
2018-12-13T20:21:56.923Z,97673.72
2018-12-13T20:24:27.725Z,97672.02
2018-12-13T20:26:58.444Z,97672.88
2018-12-13T20:29:29.422Z,97670.28
2018-12-13T20:32:00.149Z,97676.58
2018-12-13T20:34:30.879Z,97682.52
2018-12-13T20:37:02.427Z,97684.58
2018-12-13T20:39:34.997Z,97686.17
2018-12-13T20:42:05.676Z,97692.95
2018-12-13T20:44:37.697Z,97680.34
2018-12-13T20:47:08.800Z,97683.73
2018-12-13T20:49:39.437Z,97682.52
2018-12-13T20:52:10.233Z,97685.55
2018-12-13T20:54:40.885Z,97688.11
2018-12-13T20:57:11.509Z,97691.06
2018-12-13T20:59:42.149Z,97689.50
2018-12-13T21:02:12.820Z,97691.55
2018-12-13T21:04:43.927Z,97695.01
2018-12-13T21:07:19.559Z,97698.03
2018-12-13T21:09:50.310Z,97701.80
2018-12-13T21:12:21.060Z,97699.31
2018-12-13T21:14:51.716Z,97704.71
2018-12-13T21:17:22.365Z,97698.42
2018-12-13T21:19:53.103Z,97703.20
2018-12-13T21:22:24.619Z,97697.74
2018-12-13T21:24:55.410Z,97700.30
2018-12-13T21:27:26.210Z,97706.20
2018-12-13T21:29:56.990Z,97702.82
2018-12-13T21:32:27.825Z,97697.31
2018-12-13T21:34:58.537Z,97697.80
2018-12-13T21:37:29.162Z,97695.20
2018-12-13T21:39:59.805Z,97695.20
2018-12-13T21:42:30.699Z,97695.56
2018-12-13T21:45:01.449Z,97698.16
2018-12-13T21:47:37.079Z,97699.17
2018-12-13T21:50:09.138Z,97702.05
2018-12-13T21:52:40.985Z,97704.09
2018-12-13T21:55:11.668Z,97700.30
2018-12-13T21:57:42.831Z,97705.86
2018-12-13T22:00:14.964Z,97702.62
2018-12-13T22:02:45.605Z,97710.22
2018-12-13T22:05:16.513Z,97706.95
2018-12-13T22:07:47.207Z,97700.56
2018-12-13T22:10:17.846Z,97698.83
2018-12-13T22:12:48.588Z,97706.20
2018-12-13T22:15:19.255Z,97699.58
2018-12-13T22:17:49.989Z,97700.86
2018-12-13T22:20:21.092Z,97700.86
2018-12-13T22:22:52.782Z,97694.80
2018-12-13T22:25:25.835Z,97691.82
2018-12-13T22:27:56.586Z,97697.41
2018-12-13T22:30:27.296Z,97696.12
2018-12-13T22:32:58.031Z,97701.33
2018-12-13T22:35:29.788Z,97701.34
2018-12-13T22:38:00.463Z,97689.46
2018-12-13T22:40:31.265Z,97694.86
2018-12-13T22:43:01.937Z,97694.02
2018-12-13T22:45:32.843Z,97692.01
2018-12-13T22:48:04.625Z,97692.80
2018-12-13T22:50:35.442Z,97697.82
2018-12-13T22:53:06.142Z,97697.77
2018-12-13T22:55:37.007Z,97690.06
2018-12-13T22:58:08.009Z,97687.21
2018-12-13T23:00:38.790Z,97693.69
2018-12-13T23:03:11.545Z,97694.02
2018-12-13T23:05:42.349Z,97702.12
2018-12-13T23:08:13.030Z,97702.07
2018-12-13T23:10:43.945Z,97703.34
2018-12-13T23:13:14.860Z,97706.30
2018-12-13T23:15:45.623Z,97709.97
2018-12-13T23:18:16.270Z,97703.37
2018-12-13T23:20:47.956Z,97705.97
2018-12-13T23:23:18.628Z,97703.32
2018-12-13T23:25:49.640Z,97706.76
2018-12-13T23:28:20.353Z,97706.76
2018-12-13T23:30:51.053Z,97704.11
2018-12-13T23:33:21.725Z,97696.14
2018-12-13T23:35:52.581Z,97702.82
2018-12-13T23:38:23.403Z,97700.39
2018-12-13T23:40:54.121Z,97701.67
2018-12-13T23:43:24.841Z,97700.34
2018-12-13T23:45:55.703Z,97707.07
2018-12-13T23:48:26.382Z,97704.28
2018-12-13T23:50:57.370Z,97710.74
2018-12-13T23:53:28.545Z,97707.89
2018-12-13T23:56:00.366Z,97706.92
2018-12-13T23:58:31.263Z,97707.70
